sensor_id;sensor_type;location;lat;lon;timestamp;P1;durP1;ratioP1;P2;durP2;ratioP2
73557;SDS011;61829;53.286;10.434;2023-02-15T00:00:23;66.95;;;24.80;;
73557;SDS011;61829;53.286;10.434;2023-02-15T00:03:09;61.45;;;23.95;;
73557;SDS011;61829;53.286;10.434;2023-02-15T00:05:35;59.80;;;23.10;;
73557;SDS011;61829;53.286;10.434;2023-02-15T00:08:00;78.47;;;23.77;;
73557;SDS011;61829;53.286;10.434;2023-02-15T00:10:27;56.88;;;21.70;;
73557;SDS011;61829;53.286;10.434;2023-02-15T00:12:52;58.88;;;21.70;;
73557;SDS011;61829;53.286;10.434;2023-02-15T00:15:18;57.67;;;22.27;;
73557;SDS011;61829;53.286;10.434;2023-02-15T00:17:44;61.97;;;22.20;;
73557;SDS011;61829;53.286;10.434;2023-02-15T00:20:10;52.85;;;22.20;;
73557;SDS011;61829;53.286;10.434;2023-02-15T00:22:36;54.53;;;21.42;;
73557;SDS011;61829;53.286;10.434;2023-02-15T00:25:02;60.00;;;23.27;;
73557;SDS011;61829;53.286;10.434;2023-02-15T00:27:29;60.65;;;22.83;;
73557;SDS011;61829;53.286;10.434;2023-02-15T00:29:55;62.70;;;21.77;;
73557;SDS011;61829;53.286;10.434;2023-02-15T00:32:20;68.93;;;23.33;;
73557;SDS011;61829;53.286;10.434;2023-02-15T00:34:46;61.83;;;22.23;;
73557;SDS011;61829;53.286;10.434;2023-02-15T00:37:12;69.38;;;23.45;;
73557;SDS011;61829;53.286;10.434;2023-02-15T00:39:38;57.78;;;21.80;;
73557;SDS011;61829;53.286;10.434;2023-02-15T00:42:05;64.95;;;21.83;;
73557;SDS011;61829;53.286;10.434;2023-02-15T00:44:31;53.22;;;20.98;;
73557;SDS011;61829;53.286;10.434;2023-02-15T00:46:57;63.72;;;21.23;;
73557;SDS011;61829;53.286;10.434;2023-02-15T00:49:23;50.25;;;19.67;;
73557;SDS011;61829;53.286;10.434;2023-02-15T00:51:48;58.88;;;18.80;;
73557;SDS011;61829;53.286;10.434;2023-02-15T00:54:14;57.60;;;19.67;;
73557;SDS011;61829;53.286;10.434;2023-02-15T00:56:40;56.22;;;19.35;;
73557;SDS011;61829;53.286;10.434;2023-02-15T00:59:07;52.20;;;17.85;;
73557;SDS011;61829;53.286;10.434;2023-02-15T01:01:37;52.08;;;18.25;;
73557;SDS011;61829;53.286;10.434;2023-02-15T01:04:03;52.85;;;20.40;;
73557;SDS011;61829;53.286;10.434;2023-02-15T01:06:29;74.03;;;20.45;;
73557;SDS011;61829;53.286;10.434;2023-02-15T01:08:55;66.05;;;20.58;;
73557;SDS011;61829;53.286;10.434;2023-02-15T01:11:21;64.03;;;19.52;;
73557;SDS011;61829;53.286;10.434;2023-02-15T01:13:51;56.72;;;19.65;;
73557;SDS011;61829;53.286;10.434;2023-02-15T01:16:19;57.80;;;20.67;;
73557;SDS011;61829;53.286;10.434;2023-02-15T01:18:46;56.45;;;21.75;;
73557;SDS011;61829;53.286;10.434;2023-02-15T01:21:13;52.28;;;20.27;;
73557;SDS011;61829;53.286;10.434;2023-02-15T01:23:43;45.10;;;19.42;;
73557;SDS011;61829;53.286;10.434;2023-02-15T01:26:09;48.53;;;21.27;;
73557;SDS011;61829;53.286;10.434;2023-02-15T01:28:37;46.42;;;21.60;;
73557;SDS011;61829;53.286;10.434;2023-02-15T01:31:08;46.67;;;20.60;;
73557;SDS011;61829;53.286;10.434;2023-02-15T01:33:36;45.92;;;20.63;;
73557;SDS011;61829;53.286;10.434;2023-02-15T01:36:03;54.58;;;20.88;;
73557;SDS011;61829;53.286;10.434;2023-02-15T01:38:30;54.40;;;19.35;;
73557;SDS011;61829;53.286;10.434;2023-02-15T01:40:56;55.65;;;19.55;;
73557;SDS011;61829;53.286;10.434;2023-02-15T01:43:45;61.40;;;19.33;;
73557;SDS011;61829;53.286;10.434;2023-02-15T01:46:14;66.65;;;20.60;;
73557;SDS011;61829;53.286;10.434;2023-02-15T01:48:46;55.78;;;19.25;;
73557;SDS011;61829;53.286;10.434;2023-02-15T01:51:14;78.53;;;20.45;;
73557;SDS011;61829;53.286;10.434;2023-02-15T01:53:48;67.22;;;19.30;;
73557;SDS011;61829;53.286;10.434;2023-02-15T01:56:20;57.20;;;19.63;;
73557;SDS011;61829;53.286;10.434;2023-02-15T01:58:51;50.10;;;19.23;;
73557;SDS011;61829;53.286;10.434;2023-02-15T02:01:20;59.40;;;18.60;;
73557;SDS011;61829;53.286;10.434;2023-02-15T02:06:30;50.60;;;17.40;;
73557;SDS011;61829;53.286;10.434;2023-02-15T02:08:58;52.30;;;17.83;;
73557;SDS011;61829;53.286;10.434;2023-02-15T02:11:25;72.97;;;19.70;;
73557;SDS011;61829;53.286;10.434;2023-02-15T02:13:52;74.60;;;18.25;;
73557;SDS011;61829;53.286;10.434;2023-02-15T02:16:22;60.53;;;17.52;;
73557;SDS011;61829;53.286;10.434;2023-02-15T02:27:32;54.38;;;15.43;;
73557;SDS011;61829;53.286;10.434;2023-02-15T02:44:42;56.22;;;14.48;;
73557;SDS011;61829;53.286;10.434;2023-02-15T02:50:01;66.20;;;13.70;;
73557;SDS011;61829;53.286;10.434;2023-02-15T02:55:05;49.00;;;15.07;;
73557;SDS011;61829;53.286;10.434;2023-02-15T02:57:35;42.92;;;15.85;;
73557;SDS011;61829;53.286;10.434;2023-02-15T03:00:06;42.03;;;14.73;;
73557;SDS011;61829;53.286;10.434;2023-02-15T03:02:36;43.85;;;14.27;;
73557;SDS011;61829;53.286;10.434;2023-02-15T03:05:07;41.67;;;14.85;;
73557;SDS011;61829;53.286;10.434;2023-02-15T03:07:39;47.63;;;16.17;;
73557;SDS011;61829;53.286;10.434;2023-02-15T03:10:07;50.63;;;14.82;;
73557;SDS011;61829;53.286;10.434;2023-02-15T03:12:35;39.97;;;15.13;;
73557;SDS011;61829;53.286;10.434;2023-02-15T03:17:34;44.28;;;15.70;;
73557;SDS011;61829;53.286;10.434;2023-02-15T03:20:11;39.25;;;15.60;;
73557;SDS011;61829;53.286;10.434;2023-02-15T03:22:58;38.30;;;15.60;;
73557;SDS011;61829;53.286;10.434;2023-02-15T03:25:27;40.83;;;15.73;;
73557;SDS011;61829;53.286;10.434;2023-02-15T03:27:59;47.97;;;16.80;;
73557;SDS011;61829;53.286;10.434;2023-02-15T03:30:28;40.10;;;14.80;;
73557;SDS011;61829;53.286;10.434;2023-02-15T03:32:58;52.00;;;15.82;;
73557;SDS011;61829;53.286;10.434;2023-02-15T03:35:37;45.05;;;15.95;;
73557;SDS011;61829;53.286;10.434;2023-02-15T03:38:12;44.13;;;13.93;;
73557;SDS011;61829;53.286;10.434;2023-02-15T03:40:45;44.17;;;15.57;;
73557;SDS011;61829;53.286;10.434;2023-02-15T03:46:26;35.80;;;13.90;;
73557;SDS011;61829;53.286;10.434;2023-02-15T03:48:56;44.67;;;14.15;;
73557;SDS011;61829;53.286;10.434;2023-02-15T03:51:27;33.58;;;14.07;;
73557;SDS011;61829;53.286;10.434;2023-02-15T03:54:04;51.42;;;14.75;;
73557;SDS011;61829;53.286;10.434;2023-02-15T03:56:34;39.53;;;12.00;;
73557;SDS011;61829;53.286;10.434;2023-02-15T03:59:03;53.53;;;11.75;;
73557;SDS011;61829;53.286;10.434;2023-02-15T04:04:40;47.13;;;12.18;;
73557;SDS011;61829;53.286;10.434;2023-02-15T04:07:09;46.65;;;13.18;;
73557;SDS011;61829;53.286;10.434;2023-02-15T04:09:37;53.85;;;13.32;;
73557;SDS011;61829;53.286;10.434;2023-02-15T04:12:23;48.72;;;13.98;;
73557;SDS011;61829;53.286;10.434;2023-02-15T04:14:49;42.17;;;12.35;;
73557;SDS011;61829;53.286;10.434;2023-02-15T04:17:33;41.22;;;12.77;;
73557;SDS011;61829;53.286;10.434;2023-02-15T04:19:59;39.15;;;12.43;;
73557;SDS011;61829;53.286;10.434;2023-02-15T04:22:43;42.50;;;11.93;;
73557;SDS011;61829;53.286;10.434;2023-02-15T04:25:28;35.38;;;14.60;;
73557;SDS011;61829;53.286;10.434;2023-02-15T04:27:54;42.97;;;14.32;;
73557;SDS011;61829;53.286;10.434;2023-02-15T04:30:22;53.13;;;13.60;;
73557;SDS011;61829;53.286;10.434;2023-02-15T04:32:49;27.10;;;11.80;;
73557;SDS011;61829;53.286;10.434;2023-02-15T04:35:15;37.38;;;11.75;;
73557;SDS011;61829;53.286;10.434;2023-02-15T04:37:41;49.17;;;13.48;;
73557;SDS011;61829;53.286;10.434;2023-02-15T04:40:09;29.00;;;12.63;;
73557;SDS011;61829;53.286;10.434;2023-02-15T04:42:36;37.55;;;12.00;;
73557;SDS011;61829;53.286;10.434;2023-02-15T04:45:02;33.63;;;12.05;;
73557;SDS011;61829;53.286;10.434;2023-02-15T04:47:28;27.67;;;12.63;;
73557;SDS011;61829;53.286;10.434;2023-02-15T04:49:54;38.63;;;13.30;;
73557;SDS011;61829;53.286;10.434;2023-02-15T04:52:20;31.92;;;12.73;;
73557;SDS011;61829;53.286;10.434;2023-02-15T04:54:47;31.70;;;12.02;;
73557;SDS011;61829;53.286;10.434;2023-02-15T04:57:13;30.67;;;12.18;;
73557;SDS011;61829;53.286;10.434;2023-02-15T04:59:39;37.92;;;12.82;;
73557;SDS011;61829;53.286;10.434;2023-02-15T05:02:04;30.70;;;12.45;;
73557;SDS011;61829;53.286;10.434;2023-02-15T05:04:31;34.22;;;13.32;;
73557;SDS011;61829;53.286;10.434;2023-02-15T05:06:56;36.72;;;12.38;;
73557;SDS011;61829;53.286;10.434;2023-02-15T05:09:22;34.35;;;12.38;;
73557;SDS011;61829;53.286;10.434;2023-02-15T05:11:48;30.35;;;13.10;;
73557;SDS011;61829;53.286;10.434;2023-02-15T05:14:14;32.80;;;13.95;;
73557;SDS011;61829;53.286;10.434;2023-02-15T05:16:39;29.45;;;12.80;;
73557;SDS011;61829;53.286;10.434;2023-02-15T05:19:05;39.38;;;12.20;;
73557;SDS011;61829;53.286;10.434;2023-02-15T05:21:31;51.22;;;14.57;;
73557;SDS011;61829;53.286;10.434;2023-02-15T05:23:58;38.35;;;13.45;;
73557;SDS011;61829;53.286;10.434;2023-02-15T05:26:24;37.28;;;12.45;;
73557;SDS011;61829;53.286;10.434;2023-02-15T05:29:09;35.97;;;13.30;;
73557;SDS011;61829;53.286;10.434;2023-02-15T05:31:35;42.60;;;14.52;;
73557;SDS011;61829;53.286;10.434;2023-02-15T05:34:02;38.55;;;13.20;;
73557;SDS011;61829;53.286;10.434;2023-02-15T05:36:28;33.33;;;13.05;;
73557;SDS011;61829;53.286;10.434;2023-02-15T05:38:54;50.63;;;13.73;;
73557;SDS011;61829;53.286;10.434;2023-02-15T05:41:20;46.40;;;13.65;;
73557;SDS011;61829;53.286;10.434;2023-02-15T05:43:47;32.13;;;12.68;;
73557;SDS011;61829;53.286;10.434;2023-02-15T05:46:12;36.92;;;13.65;;
73557;SDS011;61829;53.286;10.434;2023-02-15T05:48:38;33.83;;;12.43;;
73557;SDS011;61829;53.286;10.434;2023-02-15T05:51:05;38.35;;;13.38;;
73557;SDS011;61829;53.286;10.434;2023-02-15T05:53:36;39.75;;;12.50;;
73557;SDS011;61829;53.286;10.434;2023-02-15T05:56:03;35.92;;;13.45;;
73557;SDS011;61829;53.286;10.434;2023-02-15T05:58:32;42.08;;;12.43;;
73557;SDS011;61829;53.286;10.434;2023-02-15T06:00:59;33.67;;;13.02;;
73557;SDS011;61829;53.286;10.434;2023-02-15T06:03:25;36.42;;;12.02;;
73557;SDS011;61829;53.286;10.434;2023-02-15T06:05:53;45.95;;;12.82;;
73557;SDS011;61829;53.286;10.434;2023-02-15T06:08:19;39.83;;;12.68;;
73557;SDS011;61829;53.286;10.434;2023-02-15T06:10:45;31.83;;;12.32;;
73557;SDS011;61829;53.286;10.434;2023-02-15T06:13:12;32.88;;;11.30;;
73557;SDS011;61829;53.286;10.434;2023-02-15T06:15:37;35.42;;;11.93;;
73557;SDS011;61829;53.286;10.434;2023-02-15T06:18:03;29.48;;;13.07;;
73557;SDS011;61829;53.286;10.434;2023-02-15T06:20:29;41.83;;;12.80;;
73557;SDS011;61829;53.286;10.434;2023-02-15T06:22:55;48.70;;;13.45;;
73557;SDS011;61829;53.286;10.434;2023-02-15T06:25:21;44.85;;;12.40;;
73557;SDS011;61829;53.286;10.434;2023-02-15T06:27:46;50.65;;;12.90;;
73557;SDS011;61829;53.286;10.434;2023-02-15T06:30:12;47.22;;;13.07;;
73557;SDS011;61829;53.286;10.434;2023-02-15T06:32:42;29.40;;;12.43;;
73557;SDS011;61829;53.286;10.434;2023-02-15T06:35:09;38.17;;;12.45;;
73557;SDS011;61829;53.286;10.434;2023-02-15T06:37:35;44.58;;;12.35;;
73557;SDS011;61829;53.286;10.434;2023-02-15T06:40:01;53.85;;;13.75;;
73557;SDS011;61829;53.286;10.434;2023-02-15T06:42:27;39.28;;;12.70;;
73557;SDS011;61829;53.286;10.434;2023-02-15T06:44:52;39.28;;;13.90;;
73557;SDS011;61829;53.286;10.434;2023-02-15T06:47:18;46.20;;;13.02;;
73557;SDS011;61829;53.286;10.434;2023-02-15T06:49:44;42.85;;;12.13;;
73557;SDS011;61829;53.286;10.434;2023-02-15T06:52:10;43.20;;;13.43;;
73557;SDS011;61829;53.286;10.434;2023-02-15T06:54:36;48.53;;;14.15;;
73557;SDS011;61829;53.286;10.434;2023-02-15T06:57:02;37.47;;;12.15;;
73557;SDS011;61829;53.286;10.434;2023-02-15T06:59:28;48.95;;;12.77;;
73557;SDS011;61829;53.286;10.434;2023-02-15T07:01:54;40.03;;;12.95;;
73557;SDS011;61829;53.286;10.434;2023-02-15T07:04:21;39.63;;;13.18;;
73557;SDS011;61829;53.286;10.434;2023-02-15T07:06:47;32.95;;;13.05;;
73557;SDS011;61829;53.286;10.434;2023-02-15T07:09:12;33.92;;;11.82;;
73557;SDS011;61829;53.286;10.434;2023-02-15T07:11:38;46.58;;;12.70;;
73557;SDS011;61829;53.286;10.434;2023-02-15T07:14:22;35.05;;;12.23;;
73557;SDS011;61829;53.286;10.434;2023-02-15T07:16:48;32.10;;;10.85;;
73557;SDS011;61829;53.286;10.434;2023-02-15T07:19:14;37.15;;;11.68;;
73557;SDS011;61829;53.286;10.434;2023-02-15T07:21:41;28.98;;;11.40;;
73557;SDS011;61829;53.286;10.434;2023-02-15T07:24:07;40.25;;;13.57;;
73557;SDS011;61829;53.286;10.434;2023-02-15T07:26:33;34.30;;;12.38;;
73557;SDS011;61829;53.286;10.434;2023-02-15T07:28:59;35.83;;;12.13;;
73557;SDS011;61829;53.286;10.434;2023-02-15T07:31:25;30.13;;;13.68;;
73557;SDS011;61829;53.286;10.434;2023-02-15T07:33:51;36.97;;;12.60;;
73557;SDS011;61829;53.286;10.434;2023-02-15T07:36:17;38.58;;;13.75;;
73557;SDS011;61829;53.286;10.434;2023-02-15T07:38:42;36.83;;;13.00;;
73557;SDS011;61829;53.286;10.434;2023-02-15T07:41:09;33.72;;;13.80;;
73557;SDS011;61829;53.286;10.434;2023-02-15T07:43:37;39.78;;;13.52;;
73557;SDS011;61829;53.286;10.434;2023-02-15T07:46:07;30.10;;;11.93;;
73557;SDS011;61829;53.286;10.434;2023-02-15T07:48:38;39.58;;;12.35;;
73557;SDS011;61829;53.286;10.434;2023-02-15T07:51:08;36.95;;;12.48;;
73557;SDS011;61829;53.286;10.434;2023-02-15T07:53:35;33.38;;;12.55;;
73557;SDS011;61829;53.286;10.434;2023-02-15T07:56:02;43.67;;;14.27;;
73557;SDS011;61829;53.286;10.434;2023-02-15T07:58:31;35.60;;;13.45;;
73557;SDS011;61829;53.286;10.434;2023-02-15T08:01:20;37.92;;;12.57;;
73557;SDS011;61829;53.286;10.434;2023-02-15T08:03:55;51.45;;;12.10;;
73557;SDS011;61829;53.286;10.434;2023-02-15T08:06:22;36.03;;;12.30;;
73557;SDS011;61829;53.286;10.434;2023-02-15T08:08:49;33.28;;;12.07;;
73557;SDS011;61829;53.286;10.434;2023-02-15T08:16:53;37.35;;;11.57;;
73557;SDS011;61829;53.286;10.434;2023-02-15T08:19:31;65.55;;;12.50;;
73557;SDS011;61829;53.286;10.434;2023-02-15T08:21:59;47.72;;;11.13;;
73557;SDS011;61829;53.286;10.434;2023-02-15T08:24:30;49.30;;;13.50;;
73557;SDS011;61829;53.286;10.434;2023-02-15T08:26:58;36.13;;;12.82;;
73557;SDS011;61829;53.286;10.434;2023-02-15T08:29:27;57.88;;;12.95;;
73557;SDS011;61829;53.286;10.434;2023-02-15T08:34:20;35.83;;;11.10;;
73557;SDS011;61829;53.286;10.434;2023-02-15T08:36:47;40.08;;;13.25;;
73557;SDS011;61829;53.286;10.434;2023-02-15T08:39:13;34.20;;;12.55;;
73557;SDS011;61829;53.286;10.434;2023-02-15T08:41:41;37.60;;;14.30;;
73557;SDS011;61829;53.286;10.434;2023-02-15T08:44:11;41.80;;;13.90;;
73557;SDS011;61829;53.286;10.434;2023-02-15T08:46:41;32.05;;;12.32;;
73557;SDS011;61829;53.286;10.434;2023-02-15T08:49:08;37.25;;;12.55;;
73557;SDS011;61829;53.286;10.434;2023-02-15T08:54:03;35.17;;;12.57;;
73557;SDS011;61829;53.286;10.434;2023-02-15T08:56:32;33.90;;;12.80;;
73557;SDS011;61829;53.286;10.434;2023-02-15T08:59:01;23.70;;;11.98;;
73557;SDS011;61829;53.286;10.434;2023-02-15T09:01:28;28.13;;;13.70;;
73557;SDS011;61829;53.286;10.434;2023-02-15T09:04:05;39.03;;;14.60;;
73557;SDS011;61829;53.286;10.434;2023-02-15T09:06:36;31.17;;;12.95;;
73557;SDS011;61829;53.286;10.434;2023-02-15T09:09:03;32.20;;;12.35;;
73557;SDS011;61829;53.286;10.434;2023-02-15T09:11:32;29.67;;;13.25;;
73557;SDS011;61829;53.286;10.434;2023-02-15T09:14:00;30.20;;;13.73;;
73557;SDS011;61829;53.286;10.434;2023-02-15T09:16:29;28.40;;;13.05;;
73557;SDS011;61829;53.286;10.434;2023-02-15T09:18:57;28.25;;;13.00;;
73557;SDS011;61829;53.286;10.434;2023-02-15T09:21:24;23.83;;;13.23;;
73557;SDS011;61829;53.286;10.434;2023-02-15T09:23:51;27.83;;;12.77;;
73557;SDS011;61829;53.286;10.434;2023-02-15T09:26:23;28.35;;;13.35;;
73557;SDS011;61829;53.286;10.434;2023-02-15T09:28:53;25.20;;;12.25;;
73557;SDS011;61829;53.286;10.434;2023-02-15T09:31:25;26.45;;;13.02;;
73557;SDS011;61829;53.286;10.434;2023-02-15T09:33:52;27.58;;;14.55;;
73557;SDS011;61829;53.286;10.434;2023-02-15T09:38:55;26.88;;;13.18;;
73557;SDS011;61829;53.286;10.434;2023-02-15T10:01:09;27.10;;;13.38;;
73557;SDS011;61829;53.286;10.434;2023-02-15T10:12:39;27.23;;;12.43;;
73557;SDS011;61829;53.286;10.434;2023-02-15T10:28:56;26.40;;;13.38;;
73557;SDS011;61829;53.286;10.434;2023-02-15T10:34:28;26.23;;;13.27;;
73557;SDS011;61829;53.286;10.434;2023-02-15T10:37:10;23.77;;;12.25;;
73557;SDS011;61829;53.286;10.434;2023-02-15T10:54:09;23.48;;;12.70;;
73557;SDS011;61829;53.286;10.434;2023-02-15T10:56:44;28.02;;;13.88;;
73557;SDS011;61829;53.286;10.434;2023-02-15T11:01:50;24.27;;;13.27;;
73557;SDS011;61829;53.286;10.434;2023-02-15T11:07:15;24.70;;;12.43;;
73557;SDS011;61829;53.286;10.434;2023-02-15T11:09:55;23.40;;;13.10;;
73557;SDS011;61829;53.286;10.434;2023-02-15T11:12:27;22.05;;;13.13;;
73557;SDS011;61829;53.286;10.434;2023-02-15T11:15:03;23.05;;;12.77;;
73557;SDS011;61829;53.286;10.434;2023-02-15T11:17:38;23.20;;;12.52;;
73557;SDS011;61829;53.286;10.434;2023-02-15T11:22:47;19.83;;;11.98;;
73557;SDS011;61829;53.286;10.434;2023-02-15T11:25:17;21.70;;;12.63;;
73557;SDS011;61829;53.286;10.434;2023-02-15T11:27:47;23.73;;;13.63;;
73557;SDS011;61829;53.286;10.434;2023-02-15T11:30:22;23.60;;;12.55;;
73557;SDS011;61829;53.286;10.434;2023-02-15T11:32:52;21.50;;;12.50;;
73557;SDS011;61829;53.286;10.434;2023-02-15T11:35:24;20.13;;;12.32;;
73557;SDS011;61829;53.286;10.434;2023-02-15T11:42:55;22.13;;;13.30;;
73557;SDS011;61829;53.286;10.434;2023-02-15T11:47:54;22.48;;;12.15;;
73557;SDS011;61829;53.286;10.434;2023-02-15T11:50:24;22.30;;;12.70;;
73557;SDS011;61829;53.286;10.434;2023-02-15T11:52:52;21.02;;;12.13;;
73557;SDS011;61829;53.286;10.434;2023-02-15T11:55:23;22.40;;;12.35;;
73557;SDS011;61829;53.286;10.434;2023-02-15T11:57:55;22.42;;;12.40;;
73557;SDS011;61829;53.286;10.434;2023-02-15T12:00:37;19.42;;;11.93;;
73557;SDS011;61829;53.286;10.434;2023-02-15T12:03:09;21.85;;;12.20;;
73557;SDS011;61829;53.286;10.434;2023-02-15T12:05:49;19.20;;;11.82;;
73557;SDS011;61829;53.286;10.434;2023-02-15T12:08:21;20.77;;;11.05;;
73557;SDS011;61829;53.286;10.434;2023-02-15T12:13:58;18.98;;;11.20;;
73557;SDS011;61829;53.286;10.434;2023-02-15T12:16:26;21.20;;;11.13;;
73557;SDS011;61829;53.286;10.434;2023-02-15T12:18:57;19.33;;;11.27;;
73557;SDS011;61829;53.286;10.434;2023-02-15T12:27:02;19.48;;;11.00;;
73557;SDS011;61829;53.286;10.434;2023-02-15T12:29:41;20.02;;;11.63;;
73557;SDS011;61829;53.286;10.434;2023-02-15T12:32:22;20.05;;;12.23;;
73557;SDS011;61829;53.286;10.434;2023-02-15T12:34:48;18.13;;;11.63;;
73557;SDS011;61829;53.286;10.434;2023-02-15T12:37:25;20.00;;;11.95;;
73557;SDS011;61829;53.286;10.434;2023-02-15T12:39:57;18.85;;;10.93;;
73557;SDS011;61829;53.286;10.434;2023-02-15T12:42:25;17.25;;;10.52;;
73557;SDS011;61829;53.286;10.434;2023-02-15T12:45:01;22.10;;;12.40;;
73557;SDS011;61829;53.286;10.434;2023-02-15T12:47:30;20.20;;;12.27;;
73557;SDS011;61829;53.286;10.434;2023-02-15T12:50:07;20.10;;;11.32;;
73557;SDS011;61829;53.286;10.434;2023-02-15T12:52:36;21.75;;;11.93;;
73557;SDS011;61829;53.286;10.434;2023-02-15T12:57:47;22.63;;;12.70;;
73557;SDS011;61829;53.286;10.434;2023-02-15T13:02:47;20.90;;;12.70;;
73557;SDS011;61829;53.286;10.434;2023-02-15T13:07:50;23.40;;;13.23;;
73557;SDS011;61829;53.286;10.434;2023-02-15T13:10:24;23.08;;;13.10;;
73557;SDS011;61829;53.286;10.434;2023-02-15T13:13:00;22.80;;;12.98;;
73557;SDS011;61829;53.286;10.434;2023-02-15T13:18:00;20.08;;;12.40;;
73557;SDS011;61829;53.286;10.434;2023-02-15T13:20:28;22.55;;;13.30;;
73557;SDS011;61829;53.286;10.434;2023-02-15T13:22:59;23.98;;;13.57;;
73557;SDS011;61829;53.286;10.434;2023-02-15T13:25:35;22.45;;;13.25;;
73557;SDS011;61829;53.286;10.434;2023-02-15T13:28:11;22.98;;;12.93;;
73557;SDS011;61829;53.286;10.434;2023-02-15T13:30:44;20.65;;;12.68;;
73557;SDS011;61829;53.286;10.434;2023-02-15T13:38:27;21.48;;;11.73;;
73557;SDS011;61829;53.286;10.434;2023-02-15T13:41:33;19.42;;;12.27;;
73557;SDS011;61829;53.286;10.434;2023-02-15T13:52:24;19.88;;;12.45;;
73557;SDS011;61829;53.286;10.434;2023-02-15T14:10:23;22.77;;;11.90;;
73557;SDS011;61829;53.286;10.434;2023-02-15T14:19:29;19.20;;;11.23;;
73557;SDS011;61829;53.286;10.434;2023-02-15T14:29:51;19.50;;;12.52;;
73557;SDS011;61829;53.286;10.434;2023-02-15T14:32:39;22.92;;;13.57;;
73557;SDS011;61829;53.286;10.434;2023-02-15T14:35:13;21.52;;;12.45;;
73557;SDS011;61829;53.286;10.434;2023-02-15T14:43:09;25.40;;;15.02;;
73557;SDS011;61829;53.286;10.434;2023-02-15T14:45:44;25.33;;;14.75;;
73557;SDS011;61829;53.286;10.434;2023-02-15T14:48:33;23.50;;;13.88;;
73557;SDS011;61829;53.286;10.434;2023-02-15T14:51:04;23.17;;;14.18;;
73557;SDS011;61829;53.286;10.434;2023-02-15T14:53:37;20.65;;;12.85;;
73557;SDS011;61829;53.286;10.434;2023-02-15T14:58:37;23.58;;;12.70;;
73557;SDS011;61829;53.286;10.434;2023-02-15T15:01:11;21.52;;;12.35;;
73557;SDS011;61829;53.286;10.434;2023-02-15T15:03:43;20.95;;;11.98;;
73557;SDS011;61829;53.286;10.434;2023-02-15T15:09:00;21.55;;;12.68;;
73557;SDS011;61829;53.286;10.434;2023-02-15T15:11:37;23.60;;;13.40;;
73557;SDS011;61829;53.286;10.434;2023-02-15T15:14:03;21.85;;;12.60;;
73557;SDS011;61829;53.286;10.434;2023-02-15T15:16:51;24.08;;;13.40;;
73557;SDS011;61829;53.286;10.434;2023-02-15T15:22:28;25.15;;;14.23;;
73557;SDS011;61829;53.286;10.434;2023-02-15T15:24:56;27.98;;;15.30;;
73557;SDS011;61829;53.286;10.434;2023-02-15T15:27:41;25.90;;;14.23;;
73557;SDS011;61829;53.286;10.434;2023-02-15T15:43:32;25.67;;;13.43;;
73557;SDS011;61829;53.286;10.434;2023-02-15T15:49:12;24.67;;;13.75;;
73557;SDS011;61829;53.286;10.434;2023-02-15T15:51:41;25.83;;;14.10;;
73557;SDS011;61829;53.286;10.434;2023-02-15T15:54:16;24.27;;;14.05;;
73557;SDS011;61829;53.286;10.434;2023-02-15T15:56:49;31.00;;;17.20;;
73557;SDS011;61829;53.286;10.434;2023-02-15T15:59:21;29.88;;;16.83;;
73557;SDS011;61829;53.286;10.434;2023-02-15T16:01:49;26.95;;;15.95;;
73557;SDS011;61829;53.286;10.434;2023-02-15T16:04:23;27.10;;;15.10;;
73557;SDS011;61829;53.286;10.434;2023-02-15T16:09:22;26.27;;;14.48;;
73557;SDS011;61829;53.286;10.434;2023-02-15T16:11:54;25.10;;;12.88;;
73557;SDS011;61829;53.286;10.434;2023-02-15T16:16:58;24.88;;;13.95;;
73557;SDS011;61829;53.286;10.434;2023-02-15T16:19:28;24.90;;;14.32;;
73557;SDS011;61829;53.286;10.434;2023-02-15T16:21:59;27.35;;;15.45;;
73557;SDS011;61829;53.286;10.434;2023-02-15T16:30:18;31.13;;;16.38;;
73557;SDS011;61829;53.286;10.434;2023-02-15T16:32:44;28.52;;;16.95;;
73557;SDS011;61829;53.286;10.434;2023-02-15T16:35:14;35.10;;;18.15;;
73557;SDS011;61829;53.286;10.434;2023-02-15T16:37:42;36.05;;;21.60;;
73557;SDS011;61829;53.286;10.434;2023-02-15T16:42:54;34.90;;;20.77;;
73557;SDS011;61829;53.286;10.434;2023-02-15T16:45:23;35.72;;;19.15;;
73557;SDS011;61829;53.286;10.434;2023-02-15T16:47:52;27.25;;;15.05;;
73557;SDS011;61829;53.286;10.434;2023-02-15T16:50:22;24.63;;;14.95;;
73557;SDS011;61829;53.286;10.434;2023-02-15T16:52:52;30.38;;;15.82;;
73557;SDS011;61829;53.286;10.434;2023-02-15T16:55:20;33.63;;;16.58;;
73557;SDS011;61829;53.286;10.434;2023-02-15T16:57:55;29.23;;;16.38;;
73557;SDS011;61829;53.286;10.434;2023-02-15T17:00:25;31.38;;;17.90;;
73557;SDS011;61829;53.286;10.434;2023-02-15T17:02:54;32.72;;;16.88;;
73557;SDS011;61829;53.286;10.434;2023-02-15T17:05:32;31.55;;;15.85;;
73557;SDS011;61829;53.286;10.434;2023-02-15T17:08:23;32.10;;;17.75;;
73557;SDS011;61829;53.286;10.434;2023-02-15T17:13:39;29.58;;;16.30;;
73557;SDS011;61829;53.286;10.434;2023-02-15T17:16:42;32.60;;;16.83;;
73557;SDS011;61829;53.286;10.434;2023-02-15T17:21:56;36.88;;;18.20;;
73557;SDS011;61829;53.286;10.434;2023-02-15T17:26:57;33.08;;;18.52;;
73557;SDS011;61829;53.286;10.434;2023-02-15T17:32:10;33.75;;;18.70;;
73557;SDS011;61829;53.286;10.434;2023-02-15T17:37:11;35.70;;;19.58;;
73557;SDS011;61829;53.286;10.434;2023-02-15T17:39:38;37.03;;;19.42;;
73557;SDS011;61829;53.286;10.434;2023-02-15T17:42:06;38.78;;;21.05;;
73557;SDS011;61829;53.286;10.434;2023-02-15T17:44:31;35.10;;;19.05;;
73557;SDS011;61829;53.286;10.434;2023-02-15T17:47:00;32.28;;;17.42;;
73557;SDS011;61829;53.286;10.434;2023-02-15T17:49:26;35.33;;;17.60;;
73557;SDS011;61829;53.286;10.434;2023-02-15T17:51:53;32.30;;;18.33;;
73557;SDS011;61829;53.286;10.434;2023-02-15T17:54:19;33.40;;;19.60;;
73557;SDS011;61829;53.286;10.434;2023-02-15T17:57:09;36.08;;;18.70;;
73557;SDS011;61829;53.286;10.434;2023-02-15T17:59:37;32.55;;;18.48;;
73557;SDS011;61829;53.286;10.434;2023-02-15T18:02:22;35.30;;;19.42;;
73557;SDS011;61829;53.286;10.434;2023-02-15T18:05:13;35.85;;;19.35;;
73557;SDS011;61829;53.286;10.434;2023-02-15T18:08:00;34.92;;;17.13;;
73557;SDS011;61829;53.286;10.434;2023-02-15T18:10:44;32.97;;;16.45;;
73557;SDS011;61829;53.286;10.434;2023-02-15T18:13:29;33.70;;;17.27;;
73557;SDS011;61829;53.286;10.434;2023-02-15T18:15:55;26.83;;;16.05;;
73557;SDS011;61829;53.286;10.434;2023-02-15T18:18:21;28.63;;;16.55;;
73557;SDS011;61829;53.286;10.434;2023-02-15T18:20:48;27.65;;;15.63;;
73557;SDS011;61829;53.286;10.434;2023-02-15T18:23:15;31.85;;;17.50;;
73557;SDS011;61829;53.286;10.434;2023-02-15T18:25:41;38.53;;;19.58;;
73557;SDS011;61829;53.286;10.434;2023-02-15T18:28:10;30.73;;;17.10;;
73557;SDS011;61829;53.286;10.434;2023-02-15T18:30:36;29.90;;;16.83;;
73557;SDS011;61829;53.286;10.434;2023-02-15T18:33:24;26.42;;;14.63;;